createdAt,value
2023-01-20T00:01:36.469Z,99577.09
2023-01-20T00:04:03.458Z,99570.97
2023-01-20T00:06:30.763Z,99576.03
2023-01-20T00:08:59.507Z,99579.03
2023-01-20T00:11:27.483Z,99577.28
2023-01-20T00:13:55.968Z,99583.28
2023-01-20T00:16:24.062Z,99571.88
2023-01-20T00:18:51.250Z,99571.03
2023-01-20T00:21:18.700Z,99579.53
2023-01-20T00:23:47.165Z,99587.59
2023-01-20T00:26:19.959Z,99601.88
2023-01-20T00:28:47.988Z,99596.81
2023-01-20T00:31:25.842Z,99602.06
2023-01-20T00:33:55.351Z,99610.81
2023-01-20T00:36:24.122Z,99603.63
2023-01-20T00:38:51.554Z,99617.59
2023-01-20T00:41:19.393Z,99618.38
2023-01-20T00:43:46.556Z,99620.03
2023-01-20T00:46:14.572Z,99622.59
2023-01-20T00:48:41.720Z,99628.75
2023-01-20T00:51:09.720Z,99624.88
2023-01-20T00:53:36.757Z,99630.94
2023-01-20T00:56:04.591Z,99630.41
2023-01-20T00:58:31.439Z,99626.59
2023-01-20T01:00:59.002Z,99625.81
2023-01-20T01:03:28.115Z,99629.19
2023-01-20T01:06:04.972Z,99623.81
2023-01-20T01:08:31.738Z,99612.59
2023-01-20T01:10:58.831Z,99600.19
2023-01-20T01:13:25.657Z,99588.47
2023-01-20T01:15:52.931Z,99592.72
2023-01-20T01:18:19.733Z,99585.88
2023-01-20T01:20:46.791Z,99590.97
2023-01-20T01:23:13.600Z,99586.63
2023-01-20T01:25:40.646Z,99584.59
2023-01-20T01:28:07.584Z,99579.97
2023-01-20T01:30:34.664Z,99571.28
2023-01-20T01:33:01.431Z,99575.50
2023-01-20T01:35:28.526Z,99568.56
2023-01-20T01:37:55.336Z,99562.69
2023-01-20T01:40:22.395Z,99561.22
2023-01-20T01:42:49.191Z,99556.41
2023-01-20T01:45:25.837Z,99551.47
2023-01-20T01:47:54.909Z,99558.88
2023-01-20T01:50:35.033Z,99550.25
2023-01-20T01:53:01.884Z,99550.63
2023-01-20T01:55:34.778Z,99552.28
2023-01-20T01:58:02.929Z,99544.63
2023-01-20T02:00:30.072Z,99535.84
2023-01-20T02:02:57.375Z,99542.09
2023-01-20T02:05:27.128Z,99538.06
2023-01-20T02:07:54.341Z,99547.41
2023-01-20T02:10:21.429Z,99542.94
2023-01-20T02:12:51.747Z,99544.09
2023-01-20T02:15:24.724Z,99541.50
2023-01-20T02:18:10.283Z,99538.00
2023-01-20T02:21:25.529Z,99537.09
2023-01-20T02:24:10.719Z,99537.84
2023-01-20T02:27:14.533Z,99536.75
2023-01-20T02:29:56.343Z,99537.75
2023-01-20T02:32:40.663Z,99541.19
2023-01-20T02:35:10.281Z,99547.59
2023-01-20T02:37:53.164Z,99542.09
2023-01-20T02:40:38.704Z,99546.34
2023-01-20T02:43:21.824Z,99537.00
2023-01-20T02:46:08.596Z,99544.53
2023-01-20T02:48:57.137Z,99546.13
2023-01-20T02:51:31.043Z,99552.06
2023-01-20T02:54:05.980Z,99550.97
2023-01-20T02:56:35.085Z,99558.81
2023-01-20T02:59:14.407Z,99554.63
2023-01-20T03:01:46.052Z,99561.50
2023-01-20T03:04:19.912Z,99567.47
2023-01-20T03:06:52.515Z,99578.38
2023-01-20T03:09:25.454Z,99571.44
2023-01-20T03:12:00.150Z,99567.41
2023-01-20T03:14:28.184Z,99584.59
2023-01-20T03:16:55.257Z,99586.16
2023-01-20T03:19:22.470Z,99585.97
2023-01-20T03:21:49.642Z,99584.00
2023-01-20T03:24:16.883Z,99584.00
2023-01-20T03:26:43.783Z,99583.88
2023-01-20T03:29:11.759Z,99589.97
2023-01-20T03:31:40.779Z,99593.44
2023-01-20T03:34:13.312Z,99590.69
2023-01-20T03:36:42.054Z,99594.09
2023-01-20T03:39:09.383Z,99594.91
2023-01-20T03:41:45.152Z,99593.16
2023-01-20T03:44:46.325Z,99591.47
2023-01-20T03:47:25.809Z,99584.66
2023-01-20T03:50:06.331Z,99577.75
2023-01-20T03:52:51.870Z,99578.34
2023-01-20T03:55:24.917Z,99580.03
2023-01-20T03:57:54.187Z,99571.41
2023-01-20T04:00:24.633Z,99577.38
2023-01-20T04:02:54.317Z,99572.38
2023-01-20T04:05:22.301Z,99568.59
2023-01-20T04:07:50.010Z,99559.94
2023-01-20T04:10:18.124Z,99548.72
2023-01-20T04:12:44.916Z,99563.94
2023-01-20T04:15:13.201Z,99563.59
2023-01-20T04:17:40.304Z,99558.47
2023-01-20T04:20:10.475Z,99561.16
2023-01-20T04:23:03.407Z,99569.06
2023-01-20T04:25:32.558Z,99559.53
2023-01-20T04:27:59.306Z,99575.31
2023-01-20T04:30:26.383Z,99571.94
2023-01-20T04:32:53.190Z,99573.75
2023-01-20T04:35:20.337Z,99572.41
2023-01-20T04:37:47.328Z,99572.91
2023-01-20T04:40:14.496Z,99577.00
2023-01-20T04:42:41.263Z,99573.28
2023-01-20T04:45:14.331Z,99571.16
2023-01-20T04:47:41.321Z,99578.09
2023-01-20T04:50:09.600Z,99580.41
2023-01-20T04:52:36.352Z,99576.28
2023-01-20T04:55:04.537Z,99581.31
2023-01-20T04:57:31.291Z,99576.06
2023-01-20T04:59:58.381Z,99566.47
2023-01-20T05:02:25.207Z,99553.41
2023-01-20T05:04:52.409Z,99542.38
2023-01-20T05:07:19.357Z,99546.09
2023-01-20T05:09:46.455Z,99536.47
2023-01-20T05:12:13.238Z,99528.28
2023-01-20T05:14:40.294Z,99527.06
2023-01-20T05:17:07.074Z,99527.97
2023-01-20T05:19:34.196Z,99525.31
2023-01-20T05:22:00.961Z,99514.91
2023-01-20T05:24:28.051Z,99525.97
2023-01-20T05:26:54.873Z,99520.75
2023-01-20T05:29:21.947Z,99526.84
2023-01-20T05:31:48.829Z,99531.84
2023-01-20T05:34:16.551Z,99529.97
2023-01-20T05:36:43.306Z,99527.00
2023-01-20T05:39:10.352Z,99538.16
2023-01-20T05:41:37.114Z,99528.63
2023-01-20T05:44:04.167Z,99533.56
2023-01-20T05:46:30.996Z,99532.69
2023-01-20T05:48:58.040Z,99528.91
2023-01-20T05:51:24.890Z,99522.78
2023-01-20T05:53:51.970Z,99535.78
2023-01-20T05:56:19.237Z,99540.84
2023-01-20T05:58:46.323Z,99536.41
2023-01-20T06:01:14.183Z,99528.56
2023-01-20T06:03:41.485Z,99537.13
2023-01-20T06:06:14.316Z,99539.47
2023-01-20T06:08:42.051Z,99541.22
2023-01-20T06:11:08.849Z,99545.34
2023-01-20T06:13:35.905Z,99538.84
2023-01-20T06:16:02.875Z,99534.63
2023-01-20T06:18:30.565Z,99536.25
2023-01-20T06:20:58.885Z,99529.00
2023-01-20T06:23:26.872Z,99531.94
2023-01-20T06:26:04.269Z,99525.00
2023-01-20T06:28:32.973Z,99525.72
2023-01-20T06:31:11.720Z,99525.78
2023-01-20T06:33:39.324Z,99518.53
2023-01-20T06:36:07.512Z,99517.50
2023-01-20T06:38:35.519Z,99520.41
2023-01-20T06:41:07.951Z,99524.00
2023-01-20T06:43:35.883Z,99540.38
2023-01-20T06:46:04.901Z,99541.31
2023-01-20T06:48:32.774Z,99533.50
2023-01-20T06:51:07.654Z,99525.69
2023-01-20T06:53:34.738Z,99550.63
2023-01-20T06:56:04.536Z,99545.47
2023-01-20T06:58:33.544Z,99554.09
2023-01-20T07:01:06.668Z,99558.44
2023-01-20T07:03:33.835Z,99560.06
2023-01-20T07:06:07.434Z,99563.66
2023-01-20T07:08:34.315Z,99560.44
2023-01-20T07:11:01.087Z,99554.00
2023-01-20T07:13:28.156Z,99563.28
2023-01-20T07:15:54.917Z,99567.09
2023-01-20T07:18:22.064Z,99569.69
2023-01-20T07:20:54.118Z,99572.94
2023-01-20T07:23:21.846Z,99581.66
2023-01-20T07:25:56.573Z,99577.00
2023-01-20T07:28:23.629Z,99578.75
2023-01-20T07:30:50.494Z,99578.47
2023-01-20T07:33:17.508Z,99579.81
2023-01-20T07:35:44.408Z,99587.84
2023-01-20T07:38:11.525Z,99581.75
2023-01-20T07:40:38.302Z,99580.78
2023-01-20T07:43:05.436Z,99580.81
2023-01-20T07:45:32.252Z,99588.53
2023-01-20T07:47:59.356Z,99583.19
2023-01-20T07:50:26.127Z,99585.72
2023-01-20T07:52:54.010Z,99588.41
2023-01-20T07:55:21.534Z,99593.31
2023-01-20T07:57:50.716Z,99583.81
2023-01-20T08:00:19.244Z,99600.03
2023-01-20T08:02:46.286Z,99594.81
2023-01-20T08:05:13.437Z,99601.00
2023-01-20T08:07:40.626Z,99604.22
2023-01-20T08:10:07.889Z,99605.00
2023-01-20T08:12:34.975Z,99607.44
2023-01-20T08:15:01.764Z,99604.53
2023-01-20T08:17:28.905Z,99606.38
2023-01-20T08:19:55.701Z,99613.09
2023-01-20T08:22:22.799Z,99615.66
2023-01-20T08:24:49.551Z,99611.22
2023-01-20T08:27:16.606Z,99612.25
2023-01-20T08:29:43.535Z,99622.78
2023-01-20T08:32:10.592Z,99616.66
2023-01-20T08:34:37.356Z,99612.13
2023-01-20T08:37:04.495Z,99613.22
2023-01-20T08:39:31.315Z,99618.22
2023-01-20T08:41:58.365Z,99620.75
2023-01-20T08:44:25.172Z,99616.56
2023-01-20T08:46:54.696Z,99621.69
2023-01-20T08:49:23.394Z,99621.91
2023-01-20T08:51:50.515Z,99622.59
2023-01-20T08:54:17.529Z,99626.59
2023-01-20T08:56:44.664Z,99627.88
2023-01-20T08:59:11.450Z,99634.94
2023-01-20T09:01:38.585Z,99633.19
2023-01-20T09:04:06.982Z,99619.88
2023-01-20T09:06:53.817Z,99622.44
2023-01-20T09:09:22.290Z,99625.59
2023-01-20T09:11:52.183Z,99630.00
2023-01-20T09:14:20.575Z,99623.00
2023-01-20T09:16:48.652Z,99623.91
2023-01-20T09:19:15.886Z,99622.91
2023-01-20T09:21:43.736Z,99620.47
2023-01-20T09:24:10.817Z,99617.03
2023-01-20T09:26:40.726Z,99614.56
2023-01-20T09:29:14.207Z,99597.03
2023-01-20T09:31:45.437Z,99592.66
2023-01-20T09:34:19.193Z,99587.84
2023-01-20T09:36:50.607Z,99573.69
2023-01-20T09:39:36.440Z,99577.22
2023-01-20T09:42:39.506Z,99566.97
2023-01-20T09:45:25.040Z,99571.25
2023-01-20T09:48:01.737Z,99567.50
2023-01-20T09:51:04.383Z,99566.19
2023-01-20T09:54:00.284Z,99565.25
2023-01-20T09:56:28.449Z,99561.75
2023-01-20T09:58:58.129Z,99551.47
2023-01-20T10:01:39.686Z,99552.97
2023-01-20T10:04:13.873Z,99542.63
2023-01-20T10:06:46.117Z,99536.69
2023-01-20T10:09:32.695Z,99523.91
2023-01-20T10:12:09.328Z,99512.06
2023-01-20T10:14:44.893Z,99500.38
2023-01-20T10:17:27.891Z,99497.81
2023-01-20T10:19:56.480Z,99490.66
2023-01-20T10:22:29.854Z,99492.09
2023-01-20T10:25:07.276Z,99487.16
2023-01-20T10:27:37.476Z,99485.34
2023-01-20T10:30:09.675Z,99499.81
2023-01-20T10:32:59.983Z,99507.28
2023-01-20T10:35:28.880Z,99497.13
2023-01-20T10:37:58.494Z,99500.34
2023-01-20T10:40:36.531Z,99504.97
2023-01-20T10:43:17.553Z,99511.25
2023-01-20T10:46:01.603Z,99510.91
2023-01-20T10:49:02.772Z,99511.75
2023-01-20T10:51:54.180Z,99515.28
2023-01-20T10:54:32.969Z,99523.09
2023-01-20T10:57:04.161Z,99526.34
2023-01-20T10:59:53.228Z,99525.63
2023-01-20T11:02:20.326Z,99529.81
2023-01-20T11:05:02.233Z,99521.13
2023-01-20T11:07:33.539Z,99522.59
2023-01-20T11:10:17.582Z,99530.16
2023-01-20T11:12:48.661Z,99516.91
2023-01-20T11:15:29.671Z,99516.00
2023-01-20T11:18:15.023Z,99509.88
2023-01-20T11:20:53.833Z,99507.81
2023-01-20T11:24:02.523Z,99492.94
2023-01-20T11:26:33.147Z,99496.53
2023-01-20T11:29:08.994Z,99485.84
2023-01-20T11:31:47.391Z,99485.53
2023-01-20T11:34:26.650Z,99478.38
2023-01-20T11:37:05.567Z,99470.47
2023-01-20T11:39:56.410Z,99466.06
2023-01-20T11:42:26.424Z,99465.56
2023-01-20T11:45:20.120Z,99469.44
2023-01-20T11:48:00.648Z,99446.06
2023-01-20T11:50:35.450Z,99459.75
2023-01-20T11:53:32.678Z,99460.28
2023-01-20T11:56:22.067Z,99464.00
2023-01-20T11:59:18.372Z,99453.66
2023-01-20T12:02:01.952Z,99445.63
2023-01-20T12:04:40.743Z,99456.88
2023-01-20T12:07:25.845Z,99446.28
2023-01-20T12:10:04.632Z,99444.59
2023-01-20T12:12:48.616Z,99446.22
2023-01-20T12:15:23.014Z,99448.81
2023-01-20T12:18:30.825Z,99449.69
2023-01-20T12:21:07.971Z,99454.97
2023-01-20T12:24:02.174Z,99461.34
2023-01-20T12:26:31.762Z,99457.97
2023-01-20T12:29:01.558Z,99464.09
2023-01-20T12:31:30.121Z,99460.44
2023-01-20T12:34:03.893Z,99463.34
2023-01-20T12:36:47.252Z,99455.03
2023-01-20T12:39:17.354Z,99457.78
2023-01-20T12:42:02.577Z,99452.56
2023-01-20T12:45:12.169Z,99456.13
2023-01-20T12:48:16.562Z,99449.75
2023-01-20T12:51:03.222Z,99450.31
2023-01-20T12:53:56.779Z,99447.81
2023-01-20T12:56:45.375Z,99457.22
2023-01-20T12:59:51.072Z,99466.63
2023-01-20T13:02:58.345Z,99460.97
2023-01-20T13:05:41.067Z,99466.31
2023-01-20T13:08:22.045Z,99467.88
2023-01-20T13:10:56.375Z,99462.25
2023-01-20T13:13:57.344Z,99471.75
2023-01-20T13:17:04.328Z,99463.66
2023-01-20T13:19:37.190Z,99470.22
2023-01-20T13:22:20.866Z,99482.50
2023-01-20T13:24:52.738Z,99483.72
2023-01-20T13:27:30.512Z,99482.84
2023-01-20T13:29:59.770Z,99485.00
2023-01-20T13:32:26.789Z,99482.31
2023-01-20T13:34:54.191Z,99483.38
2023-01-20T13:37:37.729Z,99477.47
2023-01-20T13:40:36.973Z,99476.78
2023-01-20T13:43:32.754Z,99479.56
2023-01-20T13:46:02.757Z,99479.72
2023-01-20T13:48:31.346Z,99480.00
2023-01-20T13:51:19.485Z,99494.56
2023-01-20T13:53:46.332Z,99499.63
2023-01-20T13:56:28.742Z,99498.06
2023-01-20T13:58:58.155Z,99485.16
2023-01-20T14:01:26.469Z,99491.25
2023-01-20T14:04:05.434Z,99499.34
2023-01-20T14:06:35.872Z,99500.91
2023-01-20T14:09:03.541Z,99516.97
2023-01-20T14:11:31.429Z,99513.72
2023-01-20T14:14:06.124Z,99516.94
2023-01-20T14:16:35.980Z,99522.53
2023-01-20T14:19:32.653Z,99519.81
2023-01-20T14:22:16.809Z,99522.63
2023-01-20T14:24:45.682Z,99524.38
2023-01-20T14:27:22.277Z,99529.38
2023-01-20T14:29:53.834Z,99528.38
2023-01-20T14:32:27.032Z,99513.00
2023-01-20T14:34:54.803Z,99522.59
2023-01-20T14:37:34.917Z,99520.78
2023-01-20T14:40:06.205Z,99519.44
2023-01-20T14:42:33.258Z,99529.72
2023-01-20T14:45:00.090Z,99531.81
2023-01-20T14:47:28.037Z,99533.25
2023-01-20T14:49:55.526Z,99536.00
2023-01-20T14:52:28.575Z,99526.50
2023-01-20T14:54:56.509Z,99536.09
2023-01-20T14:57:30.889Z,99531.50
2023-01-20T15:00:11.180Z,99532.34
2023-01-20T15:02:40.022Z,99527.16
2023-01-20T15:05:30.355Z,99540.97
2023-01-20T15:08:16.359Z,99544.16
2023-01-20T15:10:43.212Z,99540.13
2023-01-20T15:13:25.464Z,99543.81
2023-01-20T15:15:52.429Z,99545.94
2023-01-20T15:18:23.978Z,99545.25
2023-01-20T15:21:00.997Z,99551.31
2023-01-20T15:23:35.896Z,99553.97
2023-01-20T15:26:19.232Z,99547.47
2023-01-20T15:28:46.320Z,99554.84
2023-01-20T15:31:16.157Z,99552.91
2023-01-20T15:33:44.206Z,99552.91
2023-01-20T15:36:33.308Z,99553.34
2023-01-20T15:39:00.417Z,99554.06
2023-01-20T15:41:27.257Z,99558.94
2023-01-20T15:43:54.299Z,99558.06
2023-01-20T15:46:21.158Z,99567.84
2023-01-20T15:48:48.283Z,99556.56
2023-01-20T15:51:19.800Z,99550.69
2023-01-20T15:53:47.303Z,99551.44
2023-01-20T15:56:17.000Z,99553.19
2023-01-20T15:58:44.089Z,99561.38
2023-01-20T16:01:15.244Z,99567.84
2023-01-20T16:03:42.727Z,99571.09
2023-01-20T16:06:15.497Z,99570.31
2023-01-20T16:08:46.384Z,99570.50
2023-01-20T16:11:13.982Z,99579.31
2023-01-20T16:13:41.588Z,99587.97
2023-01-20T16:16:19.620Z,99582.84
2023-01-20T16:18:47.130Z,99583.69
2023-01-20T16:21:20.034Z,99584.13
2023-01-20T16:23:47.229Z,99581.47
2023-01-20T16:26:27.411Z,99572.13
2023-01-20T16:28:57.418Z,99574.94
2023-01-20T16:31:25.855Z,99584.44
2023-01-20T16:33:54.236Z,99584.41
2023-01-20T16:36:23.309Z,99579.03
2023-01-20T16:38:51.525Z,99581.72
2023-01-20T16:41:25.831Z,99577.66
2023-01-20T16:43:53.984Z,99582.63
2023-01-20T16:46:29.399Z,99587.00
2023-01-20T16:49:01.804Z,99590.81
2023-01-20T16:51:30.351Z,99589.78
2023-01-20T16:53:57.763Z,99591.59
2023-01-20T16:56:30.721Z,99589.63
2023-01-20T16:59:01.532Z,99589.91
2023-01-20T17:01:29.992Z,99598.63
2023-01-20T17:03:59.427Z,99604.84
2023-01-20T17:06:34.914Z,99595.44
2023-01-20T17:09:05.231Z,99584.94
2023-01-20T17:11:35.064Z,99585.41
2023-01-20T17:14:06.932Z,99585.97
2023-01-20T17:16:34.002Z,99583.59
2023-01-20T17:19:01.623Z,99585.91
2023-01-20T17:21:31.156Z,99585.97
2023-01-20T17:24:03.296Z,99592.59
2023-01-20T17:26:30.679Z,99585.84
2023-01-20T17:29:02.833Z,99576.44
2023-01-20T17:31:31.952Z,99585.91
2023-01-20T17:33:59.307Z,99588.72
2023-01-20T17:36:26.280Z,99585.41
2023-01-20T17:38:53.407Z,99579.59
2023-01-20T17:41:20.293Z,99579.75
2023-01-20T17:43:47.507Z,99588.75
2023-01-20T17:46:19.763Z,99586.97
2023-01-20T17:48:47.448Z,99593.19
2023-01-20T17:51:22.634Z,99586.69
2023-01-20T17:53:51.196Z,99587.50
2023-01-20T17:56:19.959Z,99586.81
2023-01-20T17:58:48.209Z,99585.97
2023-01-20T18:01:29.095Z,99589.28
2023-01-20T18:03:58.752Z,99578.63
2023-01-20T18:06:26.802Z,99583.25
2023-01-20T18:08:56.515Z,99583.94
2023-01-20T18:11:25.662Z,99582.00
2023-01-20T18:13:55.341Z,99586.25
2023-01-20T18:16:24.307Z,99584.66
2023-01-20T18:18:51.611Z,99579.06
2023-01-20T18:21:24.441Z,99573.00
2023-01-20T18:23:52.088Z,99574.06
2023-01-20T18:26:21.531Z,99571.69
2023-01-20T18:28:49.230Z,99570.72
2023-01-20T18:31:21.168Z,99580.03
2023-01-20T18:33:53.249Z,99572.19
2023-01-20T18:36:26.584Z,99564.78
2023-01-20T18:38:57.546Z,99563.13
2023-01-20T18:41:25.712Z,99566.25
2023-01-20T18:43:52.838Z,99564.13
2023-01-20T18:46:20.225Z,99565.66
2023-01-20T18:48:48.997Z,99562.22
2023-01-20T18:51:20.493Z,99564.59
2023-01-20T18:53:54.952Z,99564.69
2023-01-20T18:56:22.535Z,99563.66
2023-01-20T18:58:49.801Z,99559.81
2023-01-20T19:01:19.981Z,99556.69
2023-01-20T19:03:49.613Z,99549.25
2023-01-20T19:06:21.925Z,99555.16
2023-01-20T19:08:49.465Z,99540.56
2023-01-20T19:11:22.634Z,99539.00
2023-01-20T19:13:51.721Z,99544.97
2023-01-20T19:16:19.802Z,99547.09
2023-01-20T19:18:54.825Z,99557.53
2023-01-20T19:21:22.991Z,99556.25
2023-01-20T19:23:52.209Z,99562.84
2023-01-20T19:26:19.240Z,99562.75
2023-01-20T19:28:48.478Z,99561.78
2023-01-20T19:31:18.029Z,99568.69
2023-01-20T19:33:46.274Z,99576.72
2023-01-20T19:36:15.401Z,99578.28
2023-01-20T19:38:42.954Z,99585.44
2023-01-20T19:41:09.701Z,99577.84
2023-01-20T19:43:37.117Z,99575.25
2023-01-20T19:46:06.137Z,99578.63
2023-01-20T19:48:33.278Z,99576.72
2023-01-20T19:51:04.481Z,99570.00
2023-01-20T19:53:32.664Z,99573.47
2023-01-20T19:56:04.739Z,99575.19
2023-01-20T19:58:32.392Z,99576.22
2023-01-20T20:01:10.349Z,99568.56
2023-01-20T20:03:38.115Z,99574.78
2023-01-20T20:06:06.654Z,99587.69
2023-01-20T20:08:36.285Z,99587.16
2023-01-20T20:11:03.187Z,99588.13
2023-01-20T20:13:30.249Z,99600.03
2023-01-20T20:16:01.842Z,99600.16
2023-01-20T20:18:29.139Z,99604.28
2023-01-20T20:20:55.897Z,99604.09
2023-01-20T20:23:23.509Z,99602.81
2023-01-20T20:25:53.937Z,99598.50
2023-01-20T20:28:21.271Z,99599.63
2023-01-20T20:30:48.137Z,99611.72
2023-01-20T20:33:15.299Z,99610.88
2023-01-20T20:35:42.020Z,99617.81
2023-01-20T20:38:12.020Z,99619.50
2023-01-20T20:40:38.807Z,99617.75
2023-01-20T20:43:06.000Z,99612.25
2023-01-20T20:45:33.782Z,99619.19
2023-01-20T20:48:00.896Z,99624.25
2023-01-20T20:50:28.066Z,99618.22
2023-01-20T20:52:58.081Z,99632.94
2023-01-20T20:55:29.340Z,99629.44
2023-01-20T20:57:56.567Z,99631.91
2023-01-20T21:00:25.174Z,99633.63
2023-01-20T21:02:52.220Z,99642.00
2023-01-20T21:05:19.206Z,99638.56
2023-01-20T21:07:46.474Z,99640.38
2023-01-20T21:10:15.710Z,99640.97
2023-01-20T21:12:44.700Z,99643.69
2023-01-20T21:15:12.192Z,99634.03
2023-01-20T21:17:40.155Z,99638.63
2023-01-20T21:20:07.966Z,99641.78
2023-01-20T21:22:35.268Z,99638.56
2023-01-20T21:25:02.112Z,99652.63
2023-01-20T21:27:31.190Z,99645.56
2023-01-20T21:29:58.224Z,99656.00
2023-01-20T21:32:25.394Z,99655.41
2023-01-20T21:34:52.757Z,99658.84
2023-01-20T21:37:20.628Z,99660.59
2023-01-20T21:39:47.388Z,99660.59
2023-01-20T21:42:14.472Z,99670.06
2023-01-20T21:44:43.195Z,99660.78
2023-01-20T21:47:13.006Z,99670.50
2023-01-20T21:49:58.609Z,99670.97
2023-01-20T21:52:42.357Z,99671.38
2023-01-20T21:55:19.176Z,99677.34
2023-01-20T21:57:48.909Z,99681.63
2023-01-20T22:00:17.559Z,99685.19
2023-01-20T22:02:45.155Z,99696.19
2023-01-20T22:05:13.071Z,99693.72
2023-01-20T22:07:40.221Z,99690.09
2023-01-20T22:10:07.851Z,99700.59
2023-01-20T22:12:35.636Z,99698.94
2023-01-20T22:15:04.752Z,99693.97
2023-01-20T22:17:32.489Z,99699.91
2023-01-20T22:19:59.576Z,99703.78
2023-01-20T22:22:26.656Z,99706.84
2023-01-20T22:24:53.542Z,99710.13
2023-01-20T22:27:20.588Z,99712.25
2023-01-20T22:29:47.404Z,99712.25
2023-01-20T22:32:16.900Z,99702.72
2023-01-20T22:34:43.702Z,99693.66
2023-01-20T22:37:10.777Z,99704.34
2023-01-20T22:39:37.618Z,99708.81
2023-01-20T22:42:04.832Z,99703.56
2023-01-20T22:44:31.619Z,99715.75
2023-01-20T22:46:58.748Z,99706.44
2023-01-20T22:49:25.666Z,99696.91
2023-01-20T22:51:55.111Z,99696.75
2023-01-20T22:54:21.905Z,99706.84
2023-01-20T22:56:48.978Z,99700.53
2023-01-20T22:59:17.158Z,99702.22
2023-01-20T23:01:44.271Z,99705.53
2023-01-20T23:04:11.158Z,99703.00
2023-01-20T23:06:39.346Z,99697.88
2023-01-20T23:09:10.482Z,99706.69
2023-01-20T23:11:41.144Z,99706.56
2023-01-20T23:14:12.641Z,99697.09
2023-01-20T23:16:41.029Z,99702.38
2023-01-20T23:19:08.436Z,99707.69
2023-01-20T23:21:35.560Z,99709.94
2023-01-20T23:24:02.356Z,99711.75
2023-01-20T23:26:30.598Z,99717.91
2023-01-20T23:28:57.616Z,99714.69
2023-01-20T23:31:25.913Z,99715.47
2023-01-20T23:33:54.266Z,99724.09
2023-01-20T23:36:24.434Z,99728.06
2023-01-20T23:38:53.983Z,99730.75
2023-01-20T23:41:21.171Z,99742.00
2023-01-20T23:43:48.020Z,99737.91
2023-01-20T23:46:15.257Z,99736.84
2023-01-20T23:48:42.128Z,99746.16
2023-01-20T23:51:09.953Z,99751.84
2023-01-20T23:53:38.667Z,99750.88
2023-01-20T23:56:10.564Z,99754.06
2023-01-20T23:58:37.287Z,99744.69
